Time;durP1;ratioP1;P1;durP2;ratioP2;P2;SDS_P1;SDS_P2;PMS_P1;PMS_P2;Temp;Humidity;BMP_temperature;BMP_pressure;BME280_temperature;BME280_humidity;BME280_pressure;Samples;Min_cycle;Max_cycle;Signal;HPM_P1;HPM_P2
2022/02/04 00:08:57;;;;;;;6.30;4.43;;;4.20;98.50;;;;;;4984177;28;20250;-83
2022/02/04 00:25:11;;;;;;;7.03;4.03;;;4.20;98.90;;;;;;5002895;28;20242;-84
2022/02/04 00:27:38;;;;;;;5.40;3.93;;;4.20;98.80;;;;;;5002983;28;20223;-83
2022/02/04 00:30:13;;;;;;;5.60;3.40;;;4.20;98.80;;;;;;5012465;28;20288;-81
2022/02/04 00:32:44;;;;;;;5.47;3.63;;;4.20;99.00;;;;;;5011699;28;20237;-81
2022/02/04 00:35:20;;;;;;;5.70;4.00;;;4.20;99.10;;;;;;5001058;28;20282;-83
2022/02/04 00:37:57;;;;;;;4.27;3.40;;;4.20;99.00;;;;;;5008674;28;20230;-81
2022/02/04 00:40:27;;;;;;;4.57;3.37;;;4.30;98.90;;;;;;5011853;28;20207;-81
2022/02/04 00:42:57;;;;;;;5.20;3.80;;;4.20;98.80;;;;;;5011211;28;20690;-82
2022/02/04 00:45:30;;;;;;;4.57;3.73;;;4.20;99.00;;;;;;5008770;28;20758;-81
2022/02/04 00:48:08;;;;;;;4.43;3.20;;;4.10;99.10;;;;;;5010943;28;20227;-80
2022/02/04 00:50:49;;;;;;;4.87;3.27;;;4.00;99.30;;;;;;5011898;28;20199;-83
2022/02/04 00:53:22;;;;;;;4.17;3.00;;;4.00;99.60;;;;;;5010890;28;20227;-83
2022/02/04 00:56:03;;;;;;;4.10;3.20;;;4.10;99.70;;;;;;5007129;28;20204;-80
2022/02/04 01:26:11;;;;;;;3.87;2.70;;;4.20;98.60;;;;;;5014390;28;20194;-83
2022/02/04 01:28:41;;;;;;;3.33;2.47;;;4.30;98.10;;;;;;5014999;28;20230;-82
2022/02/04 01:31:12;;;;;;;3.43;2.80;;;4.30;97.80;;;;;;5023675;28;20226;-82
2022/02/04 01:33:39;;;;;;;4.23;2.70;;;4.30;97.60;;;;;;5018947;28;20634;-85
2022/02/04 01:36:07;;;;;;;3.73;2.90;;;4.20;97.70;;;;;;5019899;28;20663;-84
2022/02/04 01:38:34;;;;;;;4.33;3.00;;;4.20;97.90;;;;;;5024751;28;20234;-82
2022/02/04 01:41:01;;;;;;;3.73;2.90;;;4.20;97.70;;;;;;5026529;28;20651;-82
2022/02/04 01:43:28;;;;;;;3.60;3.00;;;4.10;97.80;;;;;;5015985;28;20706;-84
2022/02/04 01:46:01;;;;;;;3.60;2.90;;;4.00;98.10;;;;;;5012901;28;20203;-82
2022/02/04 01:48:28;;;;;;;4.13;3.00;;;4.00;98.00;;;;;;5016628;28;20694;-83
2022/02/04 01:50:55;;;;;;;4.37;2.87;;;3.90;98.10;;;;;;5013879;28;20286;-82
2022/02/04 01:53:27;;;;;;;3.70;2.67;;;3.80;98.40;;;;;;5016606;28;20239;-82
2022/02/04 01:55:56;;;;;;;4.80;2.93;;;3.70;98.50;;;;;;5014388;28;20604;-86
2022/02/04 01:58:23;;;;;;;2.50;2.30;;;3.70;98.80;;;;;;5016288;28;20227;-83
2022/02/04 02:00:50;;;;;;;3.50;2.50;;;3.60;98.90;;;;;;5017804;28;20643;-81
2022/02/04 02:03:18;;;;;;;3.03;2.70;;;3.60;99.10;;;;;;5016098;28;20235;-81
2022/02/04 02:05:45;;;;;;;3.50;2.73;;;3.60;99.30;;;;;;5016154;28;20202;-81
2022/02/04 02:08:14;;;;;;;3.13;2.60;;;3.60;99.40;;;;;;5020443;28;20289;-81
2022/02/04 02:10:44;;;;;;;3.13;2.60;;;3.60;99.70;;;;;;5021603;28;20195;-83
2022/02/04 02:13:20;;;;;;;3.40;2.80;;;3.60;99.40;;;;;;5026234;28;20258;-82
2022/02/04 02:15:55;;;;;;;3.20;2.57;;;3.60;99.40;;;;;;5021508;28;20249;-83
2022/02/04 02:35:27;;;;;;;5.97;3.50;;;3.50;98.80;;;;;;5013719;28;20249;-80
2022/02/04 02:46:29;;;;;;;4.03;2.80;;;3.40;97.80;;;;;;4990220;28;20730;-82
2022/02/04 02:49:21;;;;;;;5.63;4.00;;;3.40;97.70;;;;;;5003896;28;20242;-80
2022/02/04 02:52:10;;;;;;;7.00;4.87;;;3.30;97.70;;;;;;5014226;28;20222;-81
2022/02/04 03:00:24;;;;;;;4.23;3.17;;;3.10;97.80;;;;;;5005593;28;20568;-80
2022/02/04 03:02:53;;;;;;;5.27;3.47;;;3.10;98.00;;;;;;5014514;28;20627;-80
2022/02/04 03:05:19;;;;;;;5.90;4.13;;;3.10;98.10;;;;;;5010195;28;20310;-80
2022/02/04 03:07:46;;;;;;;4.83;3.37;;;3.10;98.00;;;;;;5013245;28;20555;-80
2022/02/04 03:10:14;;;;;;;5.47;3.80;;;3.00;98.00;;;;;;5014917;28;20203;-85
2022/02/04 03:12:43;;;;;;;3.60;3.00;;;3.00;98.00;;;;;;5013153;28;20242;-80
2022/02/04 03:15:11;;;;;;;3.80;2.83;;;2.90;97.80;;;;;;5014706;28;20716;-81
2022/02/04 03:17:38;;;;;;;3.77;2.80;;;2.90;97.60;;;;;;5013836;28;20691;-83
2022/02/04 03:20:11;;;;;;;5.27;3.23;;;2.80;97.60;;;;;;5011265;28;20211;-79
2022/02/04 03:22:38;;;;;;;3.83;2.87;;;2.80;97.70;;;;;;5009026;28;20913;-79
2022/02/04 03:25:10;;;;;;;5.60;3.10;;;2.80;97.60;;;;;;5008748;28;20761;-79
2022/02/04 03:27:44;;;;;;;4.60;3.10;;;2.70;97.60;;;;;;5017875;28;20581;-79
2022/02/04 03:30:17;;;;;;;4.13;2.83;;;2.70;97.70;;;;;;5000067;28;20226;-79
2022/02/04 03:32:49;;;;;;;3.73;2.60;;;2.70;97.60;;;;;;5012428;28;20326;-80
2022/02/04 03:35:20;;;;;;;4.40;2.80;;;2.70;97.70;;;;;;5012374;28;20207;-79
2022/02/04 03:37:48;;;;;;;4.13;3.00;;;2.60;97.60;;;;;;5012241;28;20610;-80
2022/02/04 03:40:15;;;;;;;3.30;2.60;;;2.60;97.80;;;;;;5012569;28;20611;-79
2022/02/04 03:42:43;;;;;;;3.70;2.70;;;2.60;97.90;;;;;;5012444;28;20706;-78
2022/02/04 03:45:10;;;;;;;4.53;3.00;;;2.60;97.90;;;;;;5011972;28;20234;-79
2022/02/04 03:47:37;;;;;;;5.57;4.00;;;2.50;97.80;;;;;;5009323;28;20227;-79
2022/02/04 03:50:05;;;;;;;4.53;3.30;;;2.40;98.20;;;;;;5013247;28;21001;-79
2022/02/04 03:52:32;;;;;;;4.97;3.33;;;2.40;98.40;;;;;;5004915;28;20229;-78
2022/02/04 03:54:59;;;;;;;4.77;3.27;;;2.30;98.60;;;;;;5012736;28;20671;-79
2022/02/04 03:57:25;;;;;;;4.07;2.80;;;2.30;98.60;;;;;;5011481;28;20227;-80
2022/02/04 03:59:54;;;;;;;4.00;3.00;;;2.30;98.50;;;;;;5014161;28;21651;-79
2022/02/04 04:02:21;;;;;;;4.27;3.10;;;2.30;98.40;;;;;;5019650;28;20235;-80
2022/02/04 04:04:47;;;;;;;3.53;2.60;;;2.40;98.30;;;;;;5008301;28;20601;-79
2022/02/04 04:07:14;;;;;;;3.63;2.83;;;2.30;98.00;;;;;;5011041;28;20205;-84
2022/02/04 04:09:47;;;;;;;3.77;2.87;;;2.30;97.90;;;;;;5012251;28;20286;-79
2022/02/04 04:12:14;;;;;;;3.67;3.07;;;2.30;98.00;;;;;;5011688;28;20262;-81
2022/02/04 04:14:41;;;;;;;3.83;2.73;;;2.30;98.00;;;;;;5008779;28;20275;-79
2022/02/04 04:17:09;;;;;;;8.33;3.10;;;2.30;98.00;;;;;;5010557;28;20289;-79
2022/02/04 04:19:36;;;;;;;3.87;2.90;;;2.20;98.10;;;;;;5012630;28;20214;-79
2022/02/04 04:22:03;;;;;;;6.33;3.10;;;2.10;98.30;;;;;;5011459;28;20211;-79
2022/02/04 04:24:30;;;;;;;5.00;3.50;;;2.00;97.90;;;;;;5007602;28;20227;-79
2022/02/04 04:26:57;;;;;;;3.77;3.33;;;1.90;98.60;;;;;;5011153;28;20244;-79
2022/02/04 04:29:23;;;;;;;3.93;2.97;;;1.90;99.00;;;;;;5012039;28;20199;-79
2022/02/04 04:31:51;;;;;;;3.63;3.17;;;2.00;99.00;;;;;;5012080;28;20200;-79
2022/02/04 04:34:19;;;;;;;6.13;4.50;;;2.10;98.80;;;;;;5010060;28;20239;-80
2022/02/04 04:36:46;;;;;;;4.87;3.57;;;2.10;98.50;;;;;;5021654;28;20602;-80
2022/02/04 04:39:19;;;;;;;6.63;4.00;;;2.10;98.30;;;;;;5021920;28;20257;-81
2022/02/04 04:41:56;;;;;;;5.73;3.70;;;2.10;98.30;;;;;;5012151;28;20201;-79
2022/02/04 05:28:43;;;;;;;4.90;3.43;;;2.10;98.20;;;;;;4992865;28;20235;-79
2022/02/04 05:31:21;;;;;;;4.80;3.53;;;2.10;98.40;;;;;;5011439;28;20214;-79
2022/02/04 05:33:48;;;;;;;5.27;3.43;;;2.10;98.50;;;;;;5009875;28;20281;-79
2022/02/04 05:36:15;;;;;;;6.30;3.77;;;2.10;98.60;;;;;;5009807;28;20195;-82
2022/02/04 05:38:44;;;;;;;4.90;3.63;;;2.00;98.50;;;;;;5010522;28;20227;-79
2022/02/04 05:41:14;;;;;;;7.57;3.83;;;1.90;98.70;;;;;;5011425;28;20227;-79
2022/02/04 05:43:43;;;;;;;5.97;4.37;;;1.90;98.80;;;;;;5008159;28;20234;-83
2022/02/04 05:46:14;;;;;;;8.67;4.50;;;1.90;98.80;;;;;;4999210;28;20200;-82
2022/02/04 05:48:44;;;;;;;7.10;4.07;;;1.80;99.10;;;;;;5004129;28;20638;-79
2022/02/04 05:54:01;;;;;;;6.07;4.80;;;1.80;99.60;;;;;;5007289;28;20226;-79
2022/02/04 05:56:36;;;;;;;8.87;4.50;;;1.70;99.50;;;;;;5010193;28;20203;-79
2022/02/04 05:59:10;;;;;;;7.37;5.30;;;1.80;99.60;;;;;;5007743;28;20222;-80
2022/02/04 06:01:48;;;;;;;6.53;5.03;;;1.80;99.60;;;;;;5000264;28;20197;-79
2022/02/04 06:04:36;;;;;;;7.63;4.97;;;1.90;99.60;;;;;;5005338;28;20227;-80
2022/02/04 06:07:30;;;;;;;7.50;5.13;;;2.00;99.60;;;;;;5005074;28;20196;-80
2022/02/04 06:10:28;;;;;;;7.03;5.10;;;2.00;99.60;;;;;;5011597;28;20791;-80
2022/02/04 06:23:48;;;;;;;7.63;5.87;;;2.30;99.70;;;;;;5007813;28;20221;-78
2022/02/04 06:26:17;;;;;;;6.57;5.33;;;2.30;99.70;;;;;;5010952;28;20203;-79
2022/02/04 06:28:44;;;;;;;8.87;6.03;;;2.50;99.70;;;;;;5009206;28;20231;-79
2022/02/04 06:31:12;;;;;;;11.30;6.70;;;2.70;99.80;;;;;;5011511;28;20201;-82
2022/02/04 06:33:39;;;;;;;8.70;6.47;;;2.90;99.80;;;;;;5012188;28;20662;-87
2022/02/04 06:36:07;;;;;;;9.60;6.53;;;3.00;99.80;;;;;;5019004;28;20693;-80
2022/02/04 06:38:34;;;;;;;10.57;7.87;;;3.10;99.90;;;;;;5019401;28;20235;-80
2022/02/04 06:41:02;;;;;;;11.10;8.27;;;3.20;99.90;;;;;;5022303;28;20195;-83
2022/02/04 06:43:31;;;;;;;11.43;8.60;;;3.30;99.90;;;;;;5021266;28;20227;-80
2022/02/04 06:45:58;;;;;;;13.23;9.47;;;3.30;99.90;;;;;;5012348;28;20307;-79
2022/02/04 06:48:25;;;;;;;12.63;9.30;;;3.60;99.90;;;;;;5015632;28;20239;-80
2022/02/04 06:50:53;;;;;;;15.57;9.70;;;3.60;99.90;;;;;;5005487;28;20205;-81
2022/02/04 06:53:21;;;;;;;13.17;9.93;;;3.60;99.90;;;;;;5003594;28;20223;-80
2022/02/04 06:55:47;;;;;;;13.33;9.50;;;3.80;99.90;;;;;;5012077;28;20226;-80
2022/02/04 06:58:15;;;;;;;14.43;9.77;;;4.00;99.90;;;;;;5015195;28;20313;-80
2022/02/04 07:00:43;;;;;;;14.30;10.37;;;4.20;99.90;;;;;;5023017;28;20211;-84
2022/02/04 07:03:10;;;;;;;13.80;10.70;;;4.30;99.40;;;;;;5018230;28;20240;-83
2022/02/04 07:05:42;;;;;;;13.47;10.70;;;4.30;99.30;;;;;;5013312;28;20227;-83
2022/02/04 07:08:16;;;;;;;15.07;10.90;;;4.20;99.30;;;;;;5010580;28;20741;-85
2022/02/04 07:11:03;;;;;;;15.87;10.93;;;4.30;99.80;;;;;;5005023;28;20196;-83
2022/02/04 07:13:41;;;;;;;13.63;10.30;;;4.40;99.50;;;;;;5012431;28;20223;-83
2022/02/04 07:16:26;;;;;;;15.90;10.53;;;4.40;99.40;;;;;;5015288;28;20199;-84
2022/02/04 07:21:41;;;;;;;18.37;11.00;;;4.60;98.80;;;;;;5018943;28;20211;-85
2022/02/04 07:24:23;;;;;;;13.73;10.23;;;4.80;98.50;;;;;;4994493;28;20235;-85
2022/02/04 07:26:50;;;;;;;13.00;9.80;;;4.90;98.30;;;;;;4997533;28;20809;-89
2022/02/04 07:29:18;;;;;;;13.43;9.93;;;5.00;97.70;;;;;;5015283;28;20293;-86
2022/02/04 07:31:47;;;;;;;14.33;10.23;;;5.10;97.20;;;;;;5015617;28;20643;-85
2022/02/04 07:34:21;;;;;;;14.10;9.73;;;5.20;97.20;;;;;;5014760;28;20227;-86
2022/02/04 07:42:18;;;;;;;13.63;9.50;;;5.30;96.90;;;;;;5013806;28;20242;-83
2022/02/04 07:44:44;;;;;;;14.13;10.17;;;5.30;96.90;;;;;;5013300;28;20234;-83
2022/02/04 07:47:13;;;;;;;13.30;10.40;;;5.20;96.60;;;;;;5009847;28;20210;-83
2022/02/04 07:49:40;;;;;;;13.73;9.83;;;5.30;96.80;;;;;;5006005;28;20229;-88
2022/02/04 07:52:14;;;;;;;12.80;9.93;;;5.20;96.40;;;;;;5010203;28;20210;-84
2022/02/04 07:54:41;;;;;;;14.20;9.63;;;5.30;97.00;;;;;;5006061;28;20209;-82
2022/02/04 07:57:09;;;;;;;11.83;9.47;;;5.40;96.50;;;;;;5007923;28;20208;-83
2022/02/04 07:59:36;;;;;;;14.07;10.03;;;5.40;96.30;;;;;;5011815;28;20214;-86
2022/02/04 08:02:02;;;;;;;12.33;9.50;;;5.60;96.20;;;;;;5005544;28;20617;-82
2022/02/04 08:04:34;;;;;;;12.63;9.57;;;5.60;95.30;;;;;;5011362;28;20218;-87
2022/02/04 08:07:04;;;;;;;11.87;9.23;;;5.70;95.20;;;;;;5014298;28;20663;-85
2022/02/04 08:09:39;;;;;;;13.40;9.27;;;5.70;95.20;;;;;;5018215;28;20231;-85
2022/02/04 08:12:37;;;;;;;13.67;10.10;;;5.70;95.20;;;;;;5013883;28;20211;-84
2022/02/04 08:15:13;;;;;;;13.40;10.07;;;5.80;95.20;;;;;;5011219;28;20206;-84
2022/02/04 08:18:03;;;;;;;12.37;9.43;;;5.70;95.20;;;;;;5011711;28;20233;-84
2022/02/04 08:20:58;;;;;;;11.90;9.90;;;5.90;95.30;;;;;;5016235;28;20199;-84
2022/02/04 08:23:51;;;;;;;12.60;10.00;;;6.00;94.90;;;;;;5016006;28;20235;-83
2022/02/04 08:26:33;;;;;;;12.90;10.17;;;5.90;94.90;;;;;;5011018;28;20248;-82
2022/02/04 08:32:05;;;;;;;14.03;10.37;;;6.10;94.70;;;;;;5018942;28;20199;-83
2022/02/04 08:34:47;;;;;;;15.83;10.27;;;6.10;94.20;;;;;;5012803;28;20218;-83
2022/02/04 08:48:51;;;;;;;14.13;10.63;;;6.60;93.70;;;;;;5017112;28;20768;-83
2022/02/04 08:51:37;;;;;;;13.10;10.50;;;6.70;92.70;;;;;;5008195;28;20258;-82
2022/02/04 08:54:22;;;;;;;10.98;9.55;;;6.80;93.20;;;;;;5014369;28;20230;-82
2022/02/04 08:56:57;;;;;;;15.87;10.87;;;7.00;92.30;;;;;;5011824;28;20203;-82
2022/02/04 08:59:33;;;;;;;13.10;10.50;;;7.00;91.90;;;;;;5011935;28;20637;-84
2022/02/04 09:02:05;;;;;;;15.27;10.32;;;6.90;92.30;;;;;;5013818;28;20191;-82
2022/02/04 09:04:37;;;;;;;12.40;9.52;;;7.00;91.80;;;;;;5027375;28;20235;-82
2022/02/04 09:07:08;;;;;;;12.40;9.98;;;7.00;92.20;;;;;;5019140;28;20199;-82
2022/02/04 09:09:54;;;;;;;13.55;10.18;;;7.10;92.00;;;;;;5015235;28;20203;-84
2022/02/04 09:16:54;;;;;;;15.07;10.23;;;7.00;91.60;;;;;;5017587;28;20230;-84
2022/02/04 09:18:33;;;;;;;13.88;10.90;;;7.10;91.50;;;;;;5002307;28;20300;-82
2022/02/04 09:23:40;;;;;;;12.17;10.33;;;7.10;91.50;;;;;;5002276;28;20223;-85
2022/02/04 09:26:08;;;;;;;15.77;10.63;;;7.10;91.50;;;;;;5015101;28;20577;-84
2022/02/04 09:28:36;;;;;;;13.82;10.48;;;7.00;91.40;;;;;;5015850;28;20242;-84
2022/02/04 09:31:47;;;;;;;12.95;10.60;;;6.90;92.00;;;;;;5030943;28;20252;-82
2022/02/04 09:34:14;;;;;;;12.82;9.98;;;7.00;92.10;;;;;;5006518;28;20323;-82
2022/02/04 09:36:41;;;;;;;14.52;9.88;;;7.00;92.00;;;;;;5021146;28;20195;-82
2022/02/04 09:39:09;;;;;;;10.98;9.25;;;7.20;90.10;;;;;;5026639;28;20762;-82
2022/02/04 09:41:38;;;;;;;11.55;9.63;;;7.10;90.90;;;;;;5004130;28;20206;-81
2022/02/04 09:44:06;;;;;;;11.82;9.20;;;7.20;91.20;;;;;;5006179;28;20204;-81
2022/02/04 09:46:57;;;;;;;11.30;9.00;;;7.60;90.00;;;;;;5009261;28;20208;-82
2022/02/04 10:08:21;;;;;;;11.90;7.93;;;9.20;78.70;;;;;;5016865;28;20199;-83
2022/02/04 10:12:03;;;;;;;10.80;7.22;;;9.30;74.20;;;;;;5045405;28;20207;-83
2022/02/04 10:17:11;;;;;;;8.45;7.40;;;8.80;73.70;;;;;;5043217;28;20187;-82
2022/02/04 10:30:03;;;;;;;9.80;6.60;;;8.30;78.20;;;;;;5042102;28;20187;-82
2022/02/04 10:32:50;;;;;;;9.10;7.13;;;8.20;77.80;;;;;;5043585;28;20198;-82
2022/02/04 10:35:20;;;;;;;8.63;6.57;;;8.20;78.00;;;;;;5043273;28;20565;-83
2022/02/04 10:38:05;;;;;;;6.65;6.00;;;8.30;76.00;;;;;;5041632;28;20227;-83
2022/02/04 10:40:43;;;;;;;9.02;6.68;;;8.40;76.40;;;;;;5040089;28;20202;-83
2022/02/04 10:43:27;;;;;;;8.73;6.45;;;8.30;75.80;;;;;;5062743;28;20192;-84
2022/02/04 10:46:07;;;;;;;10.02;7.07;;;8.40;77.20;;;;;;5041595;28;20207;-87
2022/02/04 11:00:07;;;;;;;8.82;6.45;;;8.10;74.40;;;;;;5042092;28;20317;-84
2022/02/04 11:02:42;;;;;;;8.45;6.30;;;8.20;75.10;;;;;;5041827;28;20314;-83
2022/02/04 11:05:17;;;;;;;9.90;6.20;;;8.10;75.10;;;;;;5043302;28;20228;-83
2022/02/04 11:36:33;;;;;;;7.18;5.53;;;8.60;71.60;;;;;;5035120;28;20226;-83
2022/02/04 11:50:27;;;;;;;10.15;6.47;;;8.50;73.10;;;;;;5021660;28;20250;-82
2022/02/04 11:52:39;;;;;;;8.02;6.72;;;8.40;73.30;;;;;;5035197;28;20236;-82
2022/02/04 11:55:33;;;;;;;7.75;6.10;;;8.30;75.40;;;;;;5036349;28;20217;-82
2022/02/04 11:58:04;;;;;;;9.27;6.40;;;8.30;73.20;;;;;;5037309;28;20221;-84
2022/02/04 12:00:38;;;;;;;9.05;6.15;;;8.30;75.00;;;;;;5051040;28;20260;-83
2022/02/04 12:03:25;;;;;;;9.80;6.50;;;8.30;75.40;;;;;;5047096;28;20218;-83
2022/02/04 12:05:52;;;;;;;10.45;6.43;;;8.60;76.00;;;;;;5045542;28;20685;-83
2022/02/04 12:08:30;;;;;;;8.20;6.50;;;9.00;73.90;;;;;;5052670;28;20297;-85
2022/02/04 12:11:01;;;;;;;8.40;6.13;;;9.20;74.00;;;;;;5045765;28;20229;-82
2022/02/04 12:13:29;;;;;;;7.18;6.47;;;9.00;70.10;;;;;;5041077;28;20745;-81
2022/02/04 12:16:02;;;;;;;8.35;6.15;;;8.90;71.30;;;;;;5040016;28;20270;-82
2022/02/04 12:19:02;;;;;;;7.47;6.10;;;9.00;73.90;;;;;;5045438;28;20263;-82
2022/02/04 12:21:48;;;;;;;7.85;6.57;;;9.10;70.90;;;;;;5045093;28;20199;-82
2022/02/04 12:27:35;;;;;;;7.93;6.18;;;9.00;71.70;;;;;;5037273;28;20229;-82
2022/02/04 12:30:45;;;;;;;7.55;6.28;;;9.20;74.10;;;;;;5048321;28;20213;-82
2022/02/04 12:33:13;;;;;;;7.30;6.05;;;9.20;66.70;;;;;;5020906;28;20900;-83
2022/02/04 12:36:19;;;;;;;7.35;6.22;;;9.00;66.40;;;;;;5022407;28;20234;-83
2022/02/04 12:38:47;;;;;;;7.78;6.38;;;8.90;71.20;;;;;;5030725;28;20217;-82
2022/02/04 12:48:08;;;;;;;6.97;6.20;;;8.40;73.20;;;;;;5047895;22;20202;-82
2022/02/04 12:50:52;;;;;;;9.50;6.60;;;8.50;73.40;;;;;;5032614;28;20203;-82
2022/02/04 12:53:25;;;;;;;8.07;6.60;;;8.60;73.50;;;;;;5039655;28;20212;-82
2022/02/04 13:02:21;;;;;;;7.63;6.28;;;9.10;73.50;;;;;;4999772;28;20266;-82
2022/02/04 13:07:52;;;;;;;7.80;6.32;;;9.30;69.00;;;;;;5030690;28;20252;-87
2022/02/04 13:10:21;;;;;;;7.43;6.07;;;9.60;64.50;;;;;;5033414;28;20202;-86
2022/02/04 13:16:31;;;;;;;7.78;6.60;;;9.60;62.60;;;;;;5036110;28;20189;-85
2022/02/04 13:18:59;;;;;;;7.40;6.20;;;9.50;62.10;;;;;;5036835;28;20226;-85
2022/02/04 13:21:28;;;;;;;8.23;5.95;;;9.60;62.10;;;;;;5024954;28;20203;-85
2022/02/04 14:51:45;;;;;;;10.05;6.80;;;8.60;73.50;;;;;;5008021;28;20203;-88
2022/02/04 14:54:31;;;;;;;10.25;7.20;;;8.60;73.50;;;;;;5001091;28;20227;-87
2022/02/04 15:06:13;;;;;;;8.27;6.07;;;8.80;73.70;;;;;;4975754;28;20227;-77
2022/02/04 15:08:55;;;;;;;7.93;6.30;;;9.10;68.00;;;;;;4978784;28;20244;-83
2022/02/04 15:11:29;;;;;;;7.35;6.00;;;8.90;69.50;;;;;;4981846;28;20239;-85
2022/02/04 15:13:57;;;;;;;9.68;6.53;;;8.80;69.30;;;;;;5008706;28;20303;-85
2022/02/04 15:16:25;;;;;;;7.70;5.82;;;8.70;71.20;;;;;;5002905;28;20271;-84
2022/02/04 15:18:52;;;;;;;6.55;5.30;;;8.90;69.00;;;;;;5001928;28;20318;-84
2022/02/04 15:35:19;;;;;;;8.30;5.88;;;8.10;72.90;;;;;;5001259;28;20251;-84
2022/02/04 15:58:32;;;;;;;8.57;6.05;;;7.40;81.00;;;;;;5482710;23;20223;-85
2022/02/04 16:04:24;;;;;;;9.80;6.40;;;7.30;81.60;;;;;;4969890;28;20228;-83
2022/02/04 16:06:57;;;;;;;11.18;6.85;;;7.20;82.40;;;;;;5000362;28;20208;-86
2022/02/04 16:09:39;;;;;;;9.23;6.22;;;7.10;83.10;;;;;;5006656;28;20671;-84
2022/02/04 16:12:16;;;;;;;7.43;6.25;;;7.10;83.70;;;;;;5000126;28;20697;-83
2022/02/04 16:14:50;;;;;;;13.25;5.88;;;7.00;83.90;;;;;;4998071;28;20188;-85
2022/02/04 16:17:28;;;;;;;7.65;6.50;;;7.00;84.50;;;;;;4994023;28;20206;-85
2022/02/04 16:26:25;;;;;;;9.23;6.32;;;6.70;86.10;;;;;;4997903;28;20290;-86
2022/02/04 16:28:51;;;;;;;10.63;6.72;;;6.70;87.70;;;;;;4986255;28;20250;-85
2022/02/04 16:31:20;;;;;;;7.65;5.90;;;6.60;88.50;;;;;;4995242;28;20287;-86
2022/02/04 16:33:49;;;;;;;8.98;6.80;;;6.50;89.90;;;;;;4996676;28;20303;-84
2022/02/04 16:36:20;;;;;;;9.55;6.40;;;6.50;89.90;;;;;;4994749;28;20210;-84
2022/02/04 16:38:53;;;;;;;7.50;6.00;;;6.50;90.00;;;;;;4994903;28;20220;-86
2022/02/04 16:41:26;;;;;;;10.80;6.35;;;6.40;89.80;;;;;;4995833;28;20200;-84
2022/02/04 16:43:53;;;;;;;9.48;6.95;;;6.40;89.80;;;;;;4987772;28;20215;-86
2022/02/04 16:46:23;;;;;;;9.25;6.95;;;6.30;90.20;;;;;;4994017;28;20223;-83
2022/02/04 16:48:50;;;;;;;7.43;6.68;;;6.20;90.60;;;;;;4997484;28;20227;-84
2022/02/04 16:51:18;;;;;;;9.70;6.65;;;6.20;90.80;;;;;;4988398;28;20230;-83
2022/02/04 16:53:45;;;;;;;11.65;7.18;;;6.20;90.80;;;;;;4990107;28;20247;-87
2022/02/04 16:56:12;;;;;;;9.85;6.65;;;6.10;91.00;;;;;;4992722;28;20234;-84
2022/02/04 16:58:40;;;;;;;8.75;6.68;;;6.00;91.30;;;;;;4988810;28;20234;-85
2022/02/04 17:01:07;;;;;;;14.23;7.05;;;6.00;91.70;;;;;;4992351;28;20584;-85
2022/02/04 17:03:35;;;;;;;56.37;32.43;;;6.00;91.80;;;;;;4985549;28;20224;-86
2022/02/04 17:06:03;;;;;;;18.65;11.70;;;6.20;94.30;;;;;;4992889;28;20227;-84
2022/02/04 17:08:45;;;;;;;9.07;6.90;;;6.30;92.70;;;;;;4992742;28;20699;-85
2022/02/04 17:11:14;;;;;;;36.53;19.33;;;6.40;92.80;;;;;;5010602;28;20207;-86
2022/02/04 17:13:41;;;;;;;27.95;14.63;;;6.70;94.70;;;;;;4993611;28;20694;-88
2022/02/04 17:16:08;;;;;;;16.42;8.23;;;6.90;92.80;;;;;;4986836;28;20215;-87
2022/02/04 17:18:37;;;;;;;9.82;6.45;;;7.30;90.80;;;;;;4988337;28;20219;-85
2022/02/04 17:21:04;;;;;;;9.07;6.77;;;7.00;88.80;;;;;;4976665;28;20196;-88
2022/02/04 17:23:41;;;;;;;13.20;6.72;;;6.70;90.00;;;;;;4976505;28;20667;-89
2022/02/04 17:26:09;;;;;;;20.57;12.63;;;6.50;90.30;;;;;;4983130;28;20207;-90
2022/02/04 17:28:35;;;;;;;12.27;7.80;;;6.50;91.80;;;;;;4993066;28;20562;-89
2022/02/04 17:31:02;;;;;;;10.70;7.60;;;6.40;91.20;;;;;;4989804;28;20196;-85
2022/02/04 17:33:31;;;;;;;11.93;7.50;;;6.20;91.30;;;;;;4987193;28;20599;-84
2022/02/04 17:36:00;;;;;;;13.77;8.30;;;6.10;91.70;;;;;;4977218;28;20674;-85
2022/02/04 17:38:29;;;;;;;9.60;7.33;;;6.20;92.30;;;;;;4982719;28;20582;-83
2022/02/04 17:40:57;;;;;;;11.73;6.83;;;6.20;92.10;;;;;;4984009;28;20205;-84
2022/02/04 17:43:26;;;;;;;9.30;6.90;;;6.20;91.90;;;;;;4993241;28;20683;-84
2022/02/04 17:45:54;;;;;;;9.93;6.67;;;6.10;91.90;;;;;;4981704;28;20207;-86
2022/02/04 17:48:25;;;;;;;13.07;7.93;;;6.20;91.50;;;;;;4992264;28;20228;-85
2022/02/04 17:50:58;;;;;;;11.60;7.10;;;6.10;91.50;;;;;;4981436;28;20232;-84
2022/02/04 17:53:32;;;;;;;9.30;7.47;;;6.00;91.80;;;;;;4983057;28;20228;-83
2022/02/04 17:56:03;;;;;;;13.00;7.87;;;6.00;92.00;;;;;;4988189;28;20598;-84
2022/02/04 17:58:40;;;;;;;8.93;6.80;;;5.90;92.00;;;;;;4989284;28;20223;-85
2022/02/04 18:01:19;;;;;;;9.47;7.40;;;5.90;92.00;;;;;;4988250;28;20215;-84
2022/02/04 18:07:07;;;;;;;8.83;6.73;;;5.80;92.10;;;;;;4985187;28;20207;-84
2022/02/04 18:09:36;;;;;;;7.43;5.83;;;5.90;91.90;;;;;;4989090;28;20216;-84
2022/02/04 18:12:04;;;;;;;7.93;6.43;;;5.80;92.00;;;;;;4986894;28;20214;-83
2022/02/04 18:14:31;;;;;;;8.07;6.37;;;5.80;92.00;;;;;;4989535;28;20260;-83
2022/02/04 18:16:58;;;;;;;8.57;6.57;;;5.80;91.80;;;;;;4993475;28;20204;-81
2022/02/04 18:20:06;;;;;;;6.90;5.70;;;5.80;91.60;;;;;;4992217;28;20230;-82
2022/02/04 18:22:46;;;;;;;7.47;5.80;;;5.80;91.60;;;;;;4999827;28;20937;-83
2022/02/04 18:25:14;;;;;;;6.67;5.20;;;5.90;91.40;;;;;;5005489;28;20651;-84
2022/02/04 18:27:46;;;;;;;9.10;5.57;;;5.80;91.50;;;;;;4991590;28;20224;-83
2022/02/04 18:30:15;;;;;;;7.77;6.13;;;5.90;91.40;;;;;;4986581;28;20196;-84
2022/02/04 18:32:46;;;;;;;8.17;6.40;;;5.90;91.40;;;;;;5000090;28;20219;-82
2022/02/04 18:35:13;;;;;;;8.43;6.23;;;6.00;91.40;;;;;;4994067;28;20775;-84
2022/02/04 18:37:44;;;;;;;8.73;6.33;;;6.00;91.10;;;;;;4985436;28;20220;-84
2022/02/04 18:43:40;;;;;;;8.83;6.50;;;6.00;90.90;;;;;;4986699;28;20597;-85
2022/02/04 18:46:22;;;;;;;7.53;5.10;;;6.10;90.30;;;;;;4991841;28;20254;-82
2022/02/04 18:48:53;;;;;;;8.43;4.13;;;6.10;89.80;;;;;;4979911;28;20235;-80
2022/02/04 18:51:38;;;;;;;6.43;3.57;;;6.10;89.70;;;;;;4991847;28;20615;-81
2022/02/04 18:54:26;;;;;;;3.43;2.93;;;6.10;89.70;;;;;;4988492;28;20607;-81
2022/02/04 18:57:15;;;;;;;4.20;2.73;;;6.00;89.60;;;;;;4989380;28;20654;-78
2022/02/04 18:59:50;;;;;;;3.00;2.63;;;5.90;89.50;;;;;;4985945;28;20220;-81
2022/02/04 19:02:18;;;;;;;4.77;2.77;;;5.90;89.50;;;;;;4987083;28;20208;-80
2022/02/04 19:04:52;;;;;;;2.23;2.03;;;5.90;89.60;;;;;;4995822;28;20725;-80
2022/02/04 19:07:27;;;;;;;4.00;2.03;;;5.90;88.50;;;;;;4986645;28;20216;-80
2022/02/04 19:09:54;;;;;;;3.27;1.83;;;5.90;88.60;;;;;;4993485;28;20193;-79
2022/02/04 19:12:36;;;;;;;3.27;2.07;;;5.90;88.10;;;;;;4993295;28;20232;-79
2022/02/04 19:15:23;;;;;;;3.13;2.10;;;5.90;88.00;;;;;;4987850;28;20533;-82
2022/02/04 19:17:53;;;;;;;2.37;1.90;;;5.90;86.80;;;;;;5002807;28;20229;-80
2022/02/04 19:20:35;;;;;;;2.10;1.80;;;6.00;85.50;;;;;;4994071;28;20667;-78
2022/02/04 19:23:06;;;;;;;1.90;1.70;;;6.00;85.30;;;;;;4998718;28;20283;-82
2022/02/04 19:25:43;;;;;;;2.07;1.87;;;6.00;85.10;;;;;;5001911;28;20215;-81
2022/02/04 19:28:13;;;;;;;2.43;1.70;;;6.00;84.10;;;;;;4998544;28;20224;-81
2022/02/04 19:30:45;;;;;;;4.67;1.93;;;5.90;85.00;;;;;;5004893;28;20206;-83
2022/02/04 19:33:12;;;;;;;2.40;1.73;;;5.80;85.10;;;;;;5010928;28;20230;-79
2022/02/04 19:35:40;;;;;;;2.27;1.90;;;5.80;85.20;;;;;;5014160;28;20282;-82
2022/02/04 19:38:21;;;;;;;1.60;1.50;;;5.70;86.10;;;;;;5012249;28;20251;-84
2022/02/04 19:40:48;;;;;;;3.30;1.50;;;5.80;84.70;;;;;;5023034;28;20195;-82
2022/02/04 19:43:20;;;;;;;2.10;1.50;;;5.90;82.40;;;;;;4985591;28;20303;-81
2022/02/04 19:45:52;;;;;;;2.03;1.50;;;6.00;80.60;;;;;;5008366;28;20237;-82
2022/02/04 19:48:29;;;;;;;1.77;1.30;;;6.10;80.90;;;;;;4995968;28;20235;-82
2022/02/04 19:51:16;;;;;;;1.60;1.40;;;6.10;80.60;;;;;;5001368;28;20196;-83
2022/02/04 20:24:46;;;;;;;1.07;1.00;;;6.30;81.40;;;;;;4983654;28;20251;-82
2022/02/04 20:27:10;;;;;;;0.83;0.83;;;6.40;81.40;;;;;;4987934;28;20583;-82
2022/02/04 20:29:37;;;;;;;1.37;0.80;;;6.50;81.40;;;;;;4996813;28;20210;-82
2022/02/04 20:32:05;;;;;;;0.90;0.90;;;6.50;81.10;;;;;;4999917;28;20233;-86
2022/02/04 20:34:32;;;;;;;1.30;1.10;;;6.50;81.70;;;;;;4997500;28;20915;-82
2022/02/04 20:36:59;;;;;;;1.20;1.10;;;6.60;80.40;;;;;;5004464;28;20206;-85
2022/02/04 20:42:20;;;;;;;1.80;1.52;;;6.80;80.50;;;;;;4981757;28;20200;-84
2022/02/04 20:44:50;;;;;;;3.33;1.10;;;6.80;79.50;;;;;;4985210;28;20223;-85
2022/02/04 20:47:20;;;;;;;1.20;1.10;;;6.80;79.90;;;;;;4987684;28;20880;-83
2022/02/04 20:50:29;;;;;;;0.80;0.80;;;6.80;80.50;;;;;;5000949;28;20219;-86
2022/02/04 20:53:03;;;;;;;1.03;0.97;;;6.90;79.50;;;;;;4962777;28;20257;-84
2022/02/04 20:55:31;;;;;;;1.23;1.13;;;6.90;80.60;;;;;;4983026;28;20204;-84
2022/02/04 20:58:01;;;;;;;1.00;1.00;;;6.90;80.20;;;;;;4983375;28;20224;-84